createdAt,value
2018-02-18T00:02:13.467Z,31.53
2018-02-18T00:04:41.274Z,31.73
2018-02-18T00:07:09.074Z,30.83
2018-02-18T00:09:36.779Z,27.67
2018-02-18T00:12:04.514Z,28.80
2018-02-18T00:14:32.303Z,28.97
2018-02-18T00:17:01.004Z,27.80
2018-02-18T00:19:28.692Z,25.90
2018-02-18T00:21:56.543Z,29.43
2018-02-18T00:24:24.211Z,30.27
2018-02-18T00:26:51.956Z,26.07
2018-02-18T00:29:19.828Z,30.60
2018-02-18T00:31:47.514Z,28.40
2018-02-18T00:34:15.087Z,30.63
2018-02-18T00:36:42.735Z,29.73
2018-02-18T00:39:10.336Z,31.40
2018-02-18T00:41:37.867Z,30.47
2018-02-18T00:44:05.463Z,28.00
2018-02-18T00:46:33.066Z,28.77
2018-02-18T00:49:01.526Z,29.37
2018-02-18T00:51:29.090Z,28.23
2018-02-18T00:53:56.667Z,29.77
2018-02-18T00:56:24.231Z,29.60
2018-02-18T00:58:51.835Z,28.23
2018-02-18T01:01:19.350Z,28.47
2018-02-18T01:03:46.956Z,27.43
2018-02-18T01:06:14.741Z,30.67
2018-02-18T01:08:43.235Z,32.67
2018-02-18T01:11:10.814Z,29.47
2018-02-18T01:13:38.373Z,28.23
2018-02-18T01:16:06.695Z,26.73
2018-02-18T01:18:34.232Z,30.60
2018-02-18T01:21:02.623Z,29.77
2018-02-18T01:23:30.191Z,28.27
2018-02-18T01:25:58.571Z,30.27
2018-02-18T01:28:26.203Z,28.47
2018-02-18T01:30:53.743Z,29.17
2018-02-18T01:33:21.326Z,28.83
2018-02-18T01:35:48.932Z,29.67
2018-02-18T01:38:16.467Z,29.10
2018-02-18T01:40:44.047Z,31.03
2018-02-18T01:43:11.592Z,28.47
2018-02-18T01:45:39.170Z,31.30
2018-02-18T01:48:06.788Z,27.33
2018-02-18T01:50:37.016Z,27.93
2018-02-18T01:53:05.287Z,28.53
2018-02-18T01:55:33.564Z,26.10
2018-02-18T01:58:01.827Z,25.10
2018-02-18T02:00:29.394Z,26.70
2018-02-18T02:02:56.907Z,27.73
2018-02-18T02:05:24.430Z,26.00
2018-02-18T02:07:51.971Z,26.70
2018-02-18T02:10:20.269Z,25.60
2018-02-18T02:12:47.775Z,25.33
2018-02-18T02:15:15.277Z,27.93
2018-02-18T02:17:43.563Z,25.93
2018-02-18T02:20:11.079Z,26.80
2018-02-18T02:22:38.581Z,25.00
2018-02-18T02:25:06.110Z,26.07
2018-02-18T02:27:34.388Z,26.47
2018-02-18T02:30:02.659Z,25.10
2018-02-18T02:32:30.929Z,24.07
2018-02-18T02:34:59.203Z,25.80
2018-02-18T02:37:26.767Z,27.00
2018-02-18T02:39:55.031Z,25.50
2018-02-18T02:42:22.513Z,24.93
2018-02-18T02:44:50.774Z,25.80
2018-02-18T02:47:18.679Z,25.30
2018-02-18T02:49:46.183Z,27.33
2018-02-18T02:52:13.698Z,25.50
2018-02-18T02:54:41.961Z,28.00
2018-02-18T02:57:09.572Z,25.00
2018-02-18T02:59:37.059Z,24.03
2018-02-18T03:02:05.359Z,23.17
2018-02-18T03:04:32.834Z,24.93
2018-02-18T03:07:00.323Z,23.10
2018-02-18T03:09:27.787Z,27.30
2018-02-18T03:11:55.266Z,24.37
2018-02-18T03:14:23.527Z,25.70
2018-02-18T03:16:51.807Z,25.60
2018-02-18T03:19:19.295Z,22.87
2018-02-18T03:21:46.789Z,25.37
2018-02-18T03:24:14.270Z,27.43
2018-02-18T03:26:41.749Z,27.90
2018-02-18T03:29:09.966Z,25.10
2018-02-18T03:31:37.438Z,28.00
2018-02-18T03:34:04.889Z,27.93
2018-02-18T03:36:32.350Z,27.00
2018-02-18T03:38:59.806Z,31.20
2018-02-18T03:41:27.281Z,25.93
2018-02-18T03:43:54.735Z,25.77
2018-02-18T03:46:22.203Z,24.93
2018-02-18T03:48:49.653Z,25.33
2018-02-18T03:51:17.122Z,25.37
2018-02-18T03:53:44.573Z,22.43
2018-02-18T03:56:12.045Z,24.53
2018-02-18T03:58:40.262Z,27.37
2018-02-18T04:01:07.722Z,24.60
2018-02-18T04:03:35.184Z,26.33
2018-02-18T04:06:02.642Z,27.93
2018-02-18T04:08:30.097Z,28.93
2018-02-18T04:10:57.556Z,31.17
2018-02-18T04:13:25.026Z,28.90
2018-02-18T04:15:52.489Z,30.43
2018-02-18T04:18:20.017Z,28.90
2018-02-18T04:20:47.465Z,30.90
2018-02-18T04:23:14.923Z,28.80
2018-02-18T04:25:42.389Z,31.13
2018-02-18T04:28:09.854Z,32.27
2018-02-18T04:30:37.311Z,35.17
2018-02-18T04:33:04.769Z,34.03
2018-02-18T04:35:32.225Z,33.50
2018-02-18T04:37:59.696Z,31.80
2018-02-18T04:40:27.144Z,33.17
2018-02-18T04:42:54.607Z,33.57
2018-02-18T04:45:22.061Z,34.27
2018-02-18T04:47:49.513Z,30.10
2018-02-18T04:50:16.973Z,32.13
2018-02-18T04:52:44.431Z,33.70
2018-02-18T04:55:11.885Z,34.30
2018-02-18T04:57:40.109Z,35.77
2018-02-18T05:00:07.561Z,37.37
2018-02-18T05:02:35.788Z,36.00
2018-02-18T05:05:03.246Z,37.80
2018-02-18T05:07:30.710Z,35.80
2018-02-18T05:09:58.166Z,36.50
2018-02-18T05:12:25.635Z,36.03
2018-02-18T05:14:53.093Z,35.33
2018-02-18T05:17:20.543Z,33.80
2018-02-18T05:19:48.010Z,37.03
2018-02-18T05:22:15.458Z,37.23
2018-02-18T05:24:42.922Z,34.70
2018-02-18T05:27:10.373Z,35.57
2018-02-18T05:29:37.829Z,35.97
2018-02-18T05:32:05.543Z,37.13
2018-02-18T05:34:33.010Z,37.50
2018-02-18T05:37:01.282Z,39.07
2018-02-18T05:39:28.750Z,37.10
2018-02-18T05:41:56.198Z,36.27
2018-02-18T05:44:23.668Z,38.60
2018-02-18T05:46:51.118Z,36.47
2018-02-18T05:49:18.580Z,34.77
2018-02-18T05:51:46.033Z,35.10
2018-02-18T05:54:13.490Z,37.60
2018-02-18T05:56:40.950Z,37.70
2018-02-18T05:59:08.426Z,35.70
2018-02-18T06:01:35.873Z,37.77
2018-02-18T06:04:03.336Z,37.20
2018-02-18T06:06:31.570Z,38.63
2018-02-18T06:08:59.020Z,36.23
2018-02-18T06:11:26.481Z,36.77
2018-02-18T06:13:53.938Z,39.17
2018-02-18T06:16:21.403Z,36.37
2018-02-18T06:18:48.872Z,37.30
2018-02-18T06:21:16.320Z,37.20
2018-02-18T06:23:43.778Z,37.53
2018-02-18T06:26:11.239Z,37.90
2018-02-18T06:28:38.698Z,37.80
2018-02-18T06:31:06.157Z,39.10
2018-02-18T06:33:34.398Z,38.97
2018-02-18T06:36:02.630Z,36.87
2018-02-18T06:38:30.077Z,35.80
2018-02-18T06:40:57.540Z,38.07
2018-02-18T06:43:24.985Z,38.17
2018-02-18T06:45:52.455Z,38.03
2018-02-18T06:48:20.665Z,36.73
2018-02-18T06:50:48.913Z,36.10
2018-02-18T06:53:16.366Z,41.00
2018-02-18T06:55:43.832Z,36.70
2018-02-18T06:58:11.281Z,38.83
2018-02-18T07:00:38.742Z,35.90
2018-02-18T07:03:06.195Z,37.67
2018-02-18T07:05:33.677Z,38.97
2018-02-18T07:08:01.891Z,36.80
2018-02-18T07:10:29.353Z,38.00
2018-02-18T07:12:56.802Z,37.77
2018-02-18T07:15:24.457Z,38.57
2018-02-18T07:17:51.928Z,38.70
2018-02-18T07:20:19.410Z,38.10
2018-02-18T07:22:46.865Z,37.10
2018-02-18T07:25:14.362Z,38.33
2018-02-18T07:27:41.789Z,39.30
2018-02-18T07:30:09.255Z,39.60
2018-02-18T07:32:36.708Z,38.03
2018-02-18T07:35:04.181Z,40.67
2018-02-18T07:37:32.410Z,40.10
2018-02-18T07:39:59.866Z,39.37
2018-02-18T07:42:27.326Z,39.17
2018-02-18T07:44:54.777Z,40.37
2018-02-18T07:47:22.250Z,37.63
2018-02-18T07:49:49.709Z,41.10
2018-02-18T07:52:17.178Z,37.40
2018-02-18T07:54:44.639Z,36.60
2018-02-18T07:57:12.099Z,37.43
2018-02-18T07:59:39.557Z,38.97
2018-02-18T08:02:07.790Z,40.17
2018-02-18T08:04:35.254Z,37.60
2018-02-18T08:07:02.717Z,36.53
2018-02-18T08:09:30.165Z,38.60
2018-02-18T08:11:57.641Z,38.63
2018-02-18T08:14:25.094Z,36.97
2018-02-18T08:16:52.549Z,38.90
2018-02-18T08:19:20.066Z,38.60
2018-02-18T08:21:47.529Z,40.50
2018-02-18T08:24:14.986Z,38.97
2018-02-18T08:26:42.457Z,38.27
2018-02-18T08:29:09.918Z,41.03
2018-02-18T08:31:37.378Z,38.90
2018-02-18T08:34:04.844Z,38.77
2018-02-18T08:36:32.308Z,41.07
2018-02-18T08:38:59.763Z,36.80
2018-02-18T08:41:27.254Z,37.80
2018-02-18T08:43:55.477Z,36.53
2018-02-18T08:46:22.938Z,36.23
2018-02-18T08:48:50.397Z,36.70
2018-02-18T08:51:17.852Z,35.33
2018-02-18T08:53:45.331Z,37.53
2018-02-18T08:56:12.783Z,36.17
2018-02-18T08:58:40.237Z,34.50
2018-02-18T09:01:07.690Z,35.63
2018-02-18T09:03:35.149Z,37.33
2018-02-18T09:06:02.606Z,34.60
2018-02-18T09:08:30.077Z,36.10
2018-02-18T09:10:57.525Z,38.23
2018-02-18T09:13:24.978Z,34.90
2018-02-18T09:15:52.428Z,35.87
2018-02-18T09:18:19.885Z,34.20
2018-02-18T09:20:47.333Z,35.93
2018-02-18T09:23:14.797Z,35.40
2018-02-18T09:25:42.262Z,34.93
2018-02-18T09:28:09.780Z,34.90
2018-02-18T09:30:37.186Z,36.63
2018-02-18T09:33:04.643Z,33.10
2018-02-18T09:35:32.093Z,34.33
2018-02-18T09:37:59.561Z,32.57
2018-02-18T09:40:27.785Z,33.60
2018-02-18T09:42:55.245Z,33.67
2018-02-18T09:45:22.697Z,33.43
2018-02-18T09:47:50.149Z,36.40
2018-02-18T09:50:17.605Z,34.80
2018-02-18T09:52:45.061Z,36.00
2018-02-18T09:55:12.565Z,32.93
2018-02-18T09:57:40.015Z,35.70
2018-02-18T10:00:07.477Z,35.70
2018-02-18T10:02:34.927Z,31.97
2018-02-18T10:05:02.386Z,30.47
2018-02-18T10:07:29.838Z,26.93
2018-02-18T10:09:57.293Z,29.53
2018-02-18T10:12:24.752Z,28.73
2018-02-18T10:14:52.231Z,29.67
2018-02-18T10:17:20.450Z,30.23
2018-02-18T10:19:47.918Z,31.27
2018-02-18T10:22:15.366Z,32.80
2018-02-18T10:24:42.821Z,29.47
2018-02-18T10:27:10.278Z,30.10
2018-02-18T10:29:37.750Z,33.67
2018-02-18T10:32:05.258Z,33.93
2018-02-18T10:34:33.488Z,31.57
2018-02-18T10:37:00.945Z,33.63
2018-02-18T10:39:28.402Z,34.43
2018-02-18T10:41:55.855Z,31.43
2018-02-18T10:44:23.306Z,29.57
2018-02-18T10:46:50.776Z,30.60
2018-02-18T10:49:18.235Z,30.10
2018-02-18T10:51:45.706Z,29.53
2018-02-18T10:54:13.163Z,30.23
2018-02-18T10:56:40.625Z,32.83
2018-02-18T10:59:08.894Z,32.00
2018-02-18T11:01:36.348Z,31.97
2018-02-18T11:04:03.812Z,30.70
2018-02-18T11:06:32.053Z,31.17
2018-02-18T11:08:59.514Z,32.00
2018-02-18T11:11:27.749Z,32.23
2018-02-18T11:13:55.190Z,30.50
2018-02-18T11:16:23.421Z,32.87
2018-02-18T11:18:50.870Z,31.90
2018-02-18T11:21:18.334Z,31.70
2018-02-18T11:23:45.789Z,33.87
2018-02-18T11:26:13.249Z,33.30
2018-02-18T11:28:40.703Z,35.87
2018-02-18T11:31:08.178Z,36.63
2018-02-18T11:33:35.637Z,35.63
2018-02-18T11:36:03.098Z,37.03
2018-02-18T11:38:30.550Z,35.03
2018-02-18T11:40:58.005Z,36.40
2018-02-18T11:43:25.460Z,33.53
2018-02-18T11:45:52.922Z,36.43
2018-02-18T11:48:20.380Z,34.80
2018-02-18T11:50:47.834Z,33.23
2018-02-18T11:53:15.290Z,35.13
2018-02-18T11:55:42.769Z,33.30
2018-02-18T11:58:10.990Z,33.47
2018-02-18T12:00:38.436Z,32.13
2018-02-18T12:03:05.898Z,33.63
2018-02-18T12:05:33.349Z,31.73
2018-02-18T12:08:00.810Z,31.00
2018-02-18T12:10:28.261Z,32.93
2018-02-18T12:12:55.726Z,31.30
2018-02-18T12:15:23.173Z,32.20
2018-02-18T12:17:50.653Z,32.30
2018-02-18T12:20:18.105Z,32.97
2018-02-18T12:22:45.574Z,34.00
2018-02-18T12:25:13.025Z,33.07
2018-02-18T12:27:40.485Z,34.27
2018-02-18T12:30:07.928Z,32.77
2018-02-18T12:32:35.389Z,27.20
2018-02-18T12:35:02.845Z,28.67
2018-02-18T12:37:30.314Z,30.70
2018-02-18T12:39:57.774Z,30.53
2018-02-18T12:42:25.227Z,29.50
2018-02-18T12:44:52.699Z,30.87
2018-02-18T12:47:20.204Z,29.10
2018-02-18T12:49:47.613Z,27.03
2018-02-18T12:52:15.066Z,28.77
2018-02-18T12:54:42.540Z,30.00
2018-02-18T12:57:10.757Z,25.30
2018-02-18T12:59:38.221Z,22.57
2018-02-18T13:02:05.683Z,23.37
2018-02-18T13:04:33.139Z,26.80
2018-02-18T13:07:00.605Z,25.83
2018-02-18T13:09:28.067Z,24.17
2018-02-18T13:11:55.546Z,23.33
2018-02-18T13:14:22.998Z,21.93
2018-02-18T13:16:50.445Z,25.07
2018-02-18T13:19:17.909Z,23.53
2018-02-18T13:21:45.366Z,22.67
2018-02-18T13:24:12.830Z,21.40
2018-02-18T13:26:41.046Z,19.63
2018-02-18T13:29:08.508Z,20.77
2018-02-18T13:31:35.962Z,26.47
2018-02-18T13:34:03.433Z,24.33
2018-02-18T13:36:30.877Z,23.03
2018-02-18T13:38:58.333Z,24.67
2018-02-18T13:41:25.794Z,25.17
2018-02-18T13:43:53.253Z,22.90
2018-02-18T13:46:20.709Z,24.47
2018-02-18T13:48:48.173Z,23.60
2018-02-18T13:51:15.631Z,23.10
2018-02-18T13:53:43.094Z,19.50
2018-02-18T13:56:10.551Z,20.87
2018-02-18T13:58:38.017Z,21.07
2018-02-18T14:01:05.472Z,24.60
2018-02-18T14:03:32.925Z,23.43
2018-02-18T14:06:00.381Z,23.60
2018-02-18T14:08:27.845Z,21.40
2018-02-18T14:10:55.294Z,22.30
2018-02-18T14:13:22.753Z,22.77
2018-02-18T14:15:50.201Z,24.20
2018-02-18T14:18:17.678Z,21.37
2018-02-18T14:20:45.130Z,21.23
2018-02-18T14:23:12.593Z,21.70
2018-02-18T14:25:40.105Z,21.13
2018-02-18T14:28:07.577Z,23.00
2018-02-18T14:30:35.041Z,19.10
2018-02-18T14:33:02.495Z,22.13
2018-02-18T14:35:29.954Z,21.57
2018-02-18T14:37:57.414Z,18.37
2018-02-18T14:40:24.874Z,21.07
2018-02-18T14:43:04.232Z,21.63
2018-02-18T14:45:43.602Z,20.40
2018-02-18T14:48:22.843Z,22.50
2018-02-18T14:51:02.165Z,23.37
2018-02-18T14:53:41.611Z,24.17
2018-02-18T14:59:01.339Z,23.57
2018-02-18T15:01:28.789Z,23.50
2018-02-18T15:03:56.252Z,23.77
2018-02-18T15:06:23.704Z,21.57
2018-02-18T15:08:51.158Z,25.37
2018-02-18T15:11:18.612Z,24.60
2018-02-18T15:13:46.058Z,26.70
2018-02-18T15:16:13.519Z,24.37
2018-02-18T15:18:40.969Z,25.00
2018-02-18T15:21:08.438Z,21.63
2018-02-18T15:23:35.933Z,22.63
2018-02-18T15:26:03.352Z,23.37
2018-02-18T15:28:30.805Z,26.17
2018-02-18T15:30:58.265Z,23.83
2018-02-18T15:33:25.713Z,25.10
2018-02-18T15:35:53.212Z,24.67
2018-02-18T15:38:20.647Z,26.37
2018-02-18T15:40:48.103Z,25.40
2018-02-18T15:43:15.549Z,24.50
2018-02-18T15:45:43.046Z,28.50
2018-02-18T15:48:10.505Z,25.80
2018-02-18T15:50:37.968Z,26.67
2018-02-18T15:53:06.186Z,27.70
2018-02-18T15:55:33.655Z,26.57
2018-02-18T15:58:01.114Z,27.47
2018-02-18T16:00:28.566Z,27.40
2018-02-18T16:02:56.105Z,26.97
2018-02-18T16:05:23.567Z,29.67
2018-02-18T16:07:51.015Z,25.57
2018-02-18T16:10:18.504Z,30.47
2018-02-18T16:12:45.952Z,30.30
2018-02-18T16:15:13.414Z,28.90
2018-02-18T16:17:40.859Z,29.63
2018-02-18T16:20:08.317Z,28.57
2018-02-18T16:22:35.767Z,27.83
2018-02-18T16:25:03.234Z,27.03
2018-02-18T16:27:30.680Z,28.30
2018-02-18T16:29:58.136Z,29.13
2018-02-18T16:32:25.654Z,28.23
2018-02-18T16:34:53.878Z,28.50
2018-02-18T16:37:21.345Z,31.70
2018-02-18T16:39:48.802Z,29.37
2018-02-18T16:42:16.269Z,29.90
2018-02-18T16:44:43.729Z,30.47
2018-02-18T16:47:11.198Z,27.77
2018-02-18T16:49:38.660Z,29.10
2018-02-18T16:52:06.889Z,29.20
2018-02-18T16:54:34.346Z,29.70
2018-02-18T16:57:01.818Z,30.80
2018-02-18T16:59:29.266Z,30.40
2018-02-18T17:01:56.725Z,30.20
2018-02-18T17:04:24.178Z,30.00
2018-02-18T17:06:51.639Z,34.83
2018-02-18T17:09:19.606Z,32.80
2018-02-18T17:11:47.065Z,30.30
2018-02-18T17:14:14.519Z,31.00
2018-02-18T17:16:41.987Z,33.30
2018-02-18T17:19:09.435Z,32.50
2018-02-18T17:21:36.936Z,31.20
2018-02-18T17:24:04.361Z,30.67
2018-02-18T17:26:31.809Z,29.73
2018-02-18T17:28:59.282Z,32.40
2018-02-18T17:31:26.730Z,35.33
2018-02-18T17:33:54.190Z,29.43
2018-02-18T17:36:21.647Z,31.03
2018-02-18T17:38:49.105Z,36.13
2018-02-18T17:41:16.556Z,30.03
2018-02-18T17:43:44.017Z,30.47
2018-02-18T17:46:11.473Z,31.70
2018-02-18T17:48:38.926Z,30.07
2018-02-18T17:51:06.387Z,33.20
2018-02-18T17:53:33.885Z,37.43
2018-02-18T17:56:02.099Z,34.40
2018-02-18T17:58:29.557Z,33.30
2018-02-18T18:00:57.018Z,32.17
2018-02-18T18:03:24.477Z,30.00
2018-02-18T18:05:51.929Z,32.13
2018-02-18T18:08:19.430Z,30.90
2018-02-18T18:10:47.666Z,31.10
2018-02-18T18:13:15.142Z,28.77
2018-02-18T18:15:42.605Z,31.73
2018-02-18T18:18:10.060Z,31.50
2018-02-18T18:20:37.531Z,33.27
2018-02-18T18:23:05.718Z,32.10
2018-02-18T18:25:33.934Z,34.23
2018-02-18T18:28:01.403Z,31.30
2018-02-18T18:30:29.625Z,31.70
2018-02-18T18:32:57.098Z,30.90
2018-02-18T18:35:24.541Z,31.13
2018-02-18T18:37:51.994Z,31.23
2018-02-18T18:40:19.453Z,31.33
2018-02-18T18:42:46.910Z,34.70
2018-02-18T18:45:14.390Z,30.03
2018-02-18T18:47:41.849Z,31.80
2018-02-18T18:50:09.525Z,28.70
2018-02-18T18:52:37.330Z,33.60
2018-02-18T18:55:04.805Z,33.60
2018-02-18T18:57:32.258Z,30.37
2018-02-18T19:00:00.485Z,30.60
2018-02-18T19:02:27.948Z,29.67
2018-02-18T19:04:55.404Z,28.77
2018-02-18T19:07:22.853Z,32.30
2018-02-18T19:09:50.314Z,32.03
2018-02-18T19:12:17.842Z,33.83
2018-02-18T19:14:45.297Z,32.50
2018-02-18T19:17:12.757Z,32.80
2018-02-18T19:19:40.217Z,30.93
2018-02-18T19:22:07.669Z,31.13
2018-02-18T19:24:35.134Z,34.80
2018-02-18T19:27:02.589Z,36.00
2018-02-18T19:29:30.049Z,35.17
2018-02-18T19:31:57.502Z,41.80
2018-02-18T19:34:24.957Z,42.97
2018-02-18T19:36:52.402Z,36.83
2018-02-18T19:39:19.867Z,37.33
2018-02-18T19:41:47.320Z,33.63
2018-02-18T19:44:14.780Z,33.60
2018-02-18T19:46:42.232Z,32.63
2018-02-18T19:49:09.705Z,33.00
2018-02-18T19:51:37.925Z,31.30
2018-02-18T19:54:06.145Z,31.50
2018-02-18T19:56:33.616Z,33.03
2018-02-18T19:59:01.082Z,33.07
2018-02-18T20:01:28.529Z,31.93
2018-02-18T20:03:55.989Z,30.67
2018-02-18T20:06:23.458Z,30.67
2018-02-18T20:08:50.979Z,30.10
2018-02-18T20:11:18.438Z,32.17
2018-02-18T20:13:45.898Z,30.63
2018-02-18T20:16:13.362Z,31.30
2018-02-18T20:18:40.832Z,30.63
2018-02-18T20:21:08.289Z,28.50
2018-02-18T20:23:35.737Z,28.70
2018-02-18T20:26:03.209Z,27.60
2018-02-18T20:28:30.662Z,29.33
2018-02-18T20:30:58.115Z,27.57
2018-02-18T20:33:25.566Z,27.47
2018-02-18T20:35:53.025Z,26.23
2018-02-18T20:38:20.485Z,25.47
2018-02-18T20:40:47.951Z,25.77
2018-02-18T20:43:15.401Z,24.13
2018-02-18T20:45:42.853Z,29.00
2018-02-18T20:48:10.306Z,28.37
2018-02-18T20:50:37.770Z,27.23
2018-02-18T20:53:05.227Z,24.33
2018-02-18T20:55:32.690Z,27.77
2018-02-18T20:58:00.161Z,25.10
2018-02-18T21:00:27.621Z,25.47
2018-02-18T21:02:55.067Z,25.17
2018-02-18T21:05:22.518Z,23.80
2018-02-18T21:07:49.979Z,23.90
2018-02-18T21:10:17.429Z,23.63
2018-02-18T21:12:44.889Z,20.10
2018-02-18T21:15:12.347Z,20.63
2018-02-18T21:17:39.801Z,19.40
2018-02-18T21:20:07.267Z,19.83
2018-02-18T21:22:34.742Z,18.17
2018-02-18T21:25:02.961Z,19.50
2018-02-18T21:27:30.469Z,19.93
2018-02-18T21:29:58.681Z,21.97
2018-02-18T21:32:26.163Z,20.30
2018-02-18T21:34:53.646Z,20.67
2018-02-18T21:37:21.132Z,23.40
2018-02-18T21:39:48.555Z,21.40
2018-02-18T21:42:16.014Z,21.33
2018-02-18T21:44:43.473Z,20.00
2018-02-18T21:47:10.946Z,22.90
2018-02-18T21:49:39.168Z,22.67
2018-02-18T21:52:06.630Z,21.27
2018-02-18T21:54:34.090Z,23.33
2018-02-18T21:57:01.545Z,26.07
2018-02-18T21:59:29.002Z,26.27
2018-02-18T22:01:56.478Z,28.27
2018-02-18T22:04:23.922Z,26.63
2018-02-18T22:06:51.437Z,27.90
2018-02-18T22:09:18.851Z,24.27
2018-02-18T22:11:46.326Z,26.17
2018-02-18T22:14:14.550Z,26.03
2018-02-18T22:16:42.017Z,26.97
2018-02-18T22:19:09.554Z,24.93
2018-02-18T22:21:37.013Z,23.87
2018-02-18T22:24:04.470Z,32.90
2018-02-18T22:26:31.929Z,45.57
2018-02-18T22:28:59.399Z,26.80
2018-02-18T22:31:26.851Z,24.73
2018-02-18T22:33:55.106Z,23.23
2018-02-18T22:36:22.566Z,23.73
2018-02-18T22:38:50.025Z,25.53
2018-02-18T22:41:17.509Z,24.30
2018-02-18T22:43:45.347Z,21.00
2018-02-18T22:46:12.785Z,22.57
2018-02-18T22:48:40.249Z,21.83
2018-02-18T22:51:07.709Z,20.10
2018-02-18T22:53:35.165Z,20.33
2018-02-18T22:56:02.613Z,21.10
2018-02-18T22:58:30.073Z,21.60
2018-02-18T23:01:00.747Z,21.43
2018-02-18T23:03:28.334Z,20.90
2018-02-18T23:05:55.818Z,20.50
2018-02-18T23:08:23.269Z,22.30
2018-02-18T23:10:51.494Z,19.90
2018-02-18T23:13:18.969Z,20.17
2018-02-18T23:15:46.422Z,19.10
2018-02-18T23:18:13.881Z,22.97
2018-02-18T23:20:53.199Z,21.47
2018-02-18T23:23:20.686Z,22.97
2018-02-18T23:25:48.128Z,22.90
2018-02-18T23:28:15.591Z,21.87
2018-02-18T23:30:43.044Z,19.07
2018-02-18T23:33:10.505Z,19.50
2018-02-18T23:35:37.957Z,21.33
2018-02-18T23:38:05.414Z,21.10
2018-02-18T23:40:32.866Z,22.00
2018-02-18T23:43:00.331Z,21.47
2018-02-18T23:45:27.785Z,21.27
2018-02-18T23:47:56.029Z,18.97
2018-02-18T23:50:23.497Z,18.27
2018-02-18T23:52:50.948Z,19.80
2018-02-18T23:55:18.408Z,20.03
2018-02-18T23:57:45.864Z,19.43
